createdAt,value
2018-01-01T00:00:12.086Z,987.96
2018-01-01T00:01:12.127Z,987.95
2018-01-01T00:02:12.105Z,987.96
2018-01-01T00:03:12.153Z,987.97
2018-01-01T00:04:12.135Z,987.94
2018-01-01T00:05:12.179Z,987.91
2018-01-01T00:06:12.194Z,987.96
2018-01-01T00:07:12.230Z,987.88
2018-01-01T00:08:12.221Z,987.87
2018-01-01T00:09:12.212Z,987.88
2018-01-01T00:10:12.225Z,987.86
2018-01-01T00:11:12.240Z,987.89
2018-01-01T00:12:12.253Z,987.85
2018-01-01T00:13:12.272Z,987.82
2018-01-01T00:14:12.285Z,987.88
2018-01-01T00:15:12.303Z,987.91
2018-01-01T00:16:12.318Z,987.88
2018-01-01T00:17:12.331Z,987.81
2018-01-01T00:18:12.345Z,987.82
2018-01-01T00:19:12.360Z,987.75
2018-01-01T00:20:12.376Z,987.78
2018-01-01T00:21:12.389Z,987.76
2018-01-01T00:22:12.407Z,987.78
2018-01-01T00:23:12.421Z,987.81
2018-01-01T00:24:12.437Z,987.76
2018-01-01T00:25:12.458Z,987.7
2018-01-01T00:26:12.467Z,987.79
2018-01-01T00:27:12.480Z,987.79
2018-01-01T00:28:12.495Z,987.74
2018-01-01T00:29:12.534Z,987.84
2018-01-01T00:30:12.525Z,987.82
2018-01-01T00:31:12.540Z,987.83
2018-01-01T00:32:12.560Z,987.84
2018-01-01T00:33:12.575Z,987.83
2018-01-01T00:34:12.584Z,987.83
2018-01-01T00:35:12.600Z,987.79
2018-01-01T00:36:12.614Z,987.78
2018-01-01T00:37:12.629Z,987.8
2018-01-01T00:38:12.646Z,987.78
2018-01-01T00:39:12.660Z,987.82
2018-01-01T00:40:12.674Z,987.85
2018-01-01T00:41:12.689Z,987.81
2018-01-01T00:42:12.706Z,987.77
2018-01-01T00:43:12.720Z,987.81
2018-01-01T00:44:12.734Z,987.82
2018-01-01T00:45:12.749Z,987.77
2018-01-01T00:46:12.763Z,987.72
2018-01-01T00:47:12.779Z,987.74
2018-01-01T00:48:12.795Z,987.76
2018-01-01T00:49:12.809Z,987.72
2018-01-01T00:50:12.825Z,987.7
2018-01-01T00:51:12.839Z,987.75
2018-01-01T00:52:12.856Z,987.77
2018-01-01T00:53:12.869Z,987.78
2018-01-01T00:54:12.881Z,987.76
2018-01-01T00:55:12.900Z,987.75
2018-01-01T00:56:12.913Z,987.8
2018-01-01T00:57:12.928Z,987.81
2018-01-01T00:58:12.942Z,987.84
2018-01-01T00:59:12.957Z,987.87
2018-01-01T01:00:12.973Z,987.91
2018-01-01T01:01:12.988Z,987.89
2018-01-01T01:02:13.005Z,987.9
2018-01-01T01:03:13.018Z,987.92
2018-01-01T01:04:13.039Z,987.93
2018-01-01T01:05:13.048Z,987.93
2018-01-01T01:06:13.062Z,987.95
2018-01-01T01:07:15.398Z,987.96
2018-01-01T01:08:13.100Z,987.91
2018-01-01T01:09:13.107Z,987.92
2018-01-01T01:10:13.122Z,987.93
2018-01-01T01:11:13.143Z,987.95
2018-01-01T01:12:13.154Z,987.97
2018-01-01T01:13:13.166Z,987.88
2018-01-01T01:14:13.181Z,987.94
2018-01-01T01:15:13.196Z,987.99
2018-01-01T01:16:13.210Z,987.95
2018-01-01T01:17:13.225Z,987.96
2018-01-01T01:18:13.241Z,987.94
2018-01-01T01:19:13.256Z,988
2018-01-01T01:20:13.272Z,988.05
2018-01-01T01:21:13.285Z,988.06
2018-01-01T01:22:13.300Z,988.1
2018-01-01T01:23:13.318Z,988.08
2018-01-01T01:24:13.329Z,988.12
2018-01-01T01:25:13.345Z,988.11
2018-01-01T01:26:13.360Z,988.14
2018-01-01T01:27:13.374Z,988.15
2018-01-01T01:28:13.389Z,988.18
2018-01-01T01:29:13.404Z,988.16
2018-01-01T01:30:13.420Z,988.13
2018-01-01T01:31:13.434Z,988.17
2018-01-01T01:32:13.449Z,988.09
2018-01-01T01:33:13.465Z,988.14
2018-01-01T01:34:13.478Z,988.1
2018-01-01T01:35:13.494Z,988.12
2018-01-01T01:36:13.509Z,988.14
2018-01-01T01:37:13.523Z,988.13
2018-01-01T01:38:13.539Z,988.1
2018-01-01T01:39:13.552Z,988.12
2018-01-01T01:40:13.569Z,988.16
2018-01-01T01:41:13.584Z,988.17
2018-01-01T01:42:13.599Z,988.18
2018-01-01T01:43:13.637Z,988.17
2018-01-01T01:44:13.682Z,988.19
2018-01-01T01:45:13.642Z,988.17
2018-01-01T01:46:13.658Z,988.22
2018-01-01T01:47:13.673Z,988.25
2018-01-01T01:48:13.687Z,988.27
2018-01-01T01:49:13.701Z,988.3
2018-01-01T01:50:13.719Z,988.33
2018-01-01T01:51:13.732Z,988.29
2018-01-01T01:52:13.747Z,988.28
2018-01-01T01:53:13.761Z,988.27
2018-01-01T01:54:13.878Z,988.28
2018-01-01T01:55:13.791Z,988.29
2018-01-01T01:56:13.820Z,988.31
2018-01-01T01:57:13.820Z,988.29
2018-01-01T01:58:13.835Z,988.31
2018-01-01T01:59:13.900Z,988.31
2018-01-01T02:00:13.865Z,988.32
2018-01-01T02:01:13.883Z,988.38
2018-01-01T02:02:13.895Z,988.39
2018-01-01T02:03:13.909Z,988.4
2018-01-01T02:04:13.924Z,988.45
2018-01-01T02:05:13.939Z,988.43
2018-01-01T02:06:13.954Z,988.5
2018-01-01T02:07:13.969Z,988.49
2018-01-01T02:08:13.983Z,988.51
2018-01-01T02:09:13.999Z,988.47
2018-01-01T02:10:14.014Z,988.52
2018-01-01T02:11:14.027Z,988.52
2018-01-01T02:12:14.043Z,988.55
2018-01-01T02:13:14.058Z,988.54
2018-01-01T02:14:14.073Z,988.6
2018-01-01T02:15:14.087Z,988.56
2018-01-01T02:16:14.102Z,988.58
2018-01-01T02:17:14.117Z,988.57
2018-01-01T02:18:14.129Z,988.56
2018-01-01T02:19:14.146Z,988.58
2018-01-01T02:20:14.161Z,988.57
2018-01-01T02:21:14.176Z,988.64
2018-01-01T02:22:14.190Z,988.58
2018-01-01T02:23:14.205Z,988.6
2018-01-01T02:24:14.221Z,988.56
2018-01-01T02:25:14.237Z,988.51
2018-01-01T02:26:14.255Z,988.56
2018-01-01T02:27:14.266Z,988.59
2018-01-01T02:28:14.280Z,988.55
2018-01-01T02:29:14.294Z,988.57
2018-01-01T02:30:14.310Z,988.57
2018-01-01T02:31:14.324Z,988.58
2018-01-01T02:32:14.339Z,988.59
2018-01-01T02:33:14.353Z,988.51
2018-01-01T02:34:14.369Z,988.6
2018-01-01T02:35:14.383Z,988.56
2018-01-01T02:36:14.398Z,988.58
2018-01-01T02:37:14.420Z,988.59
2018-01-01T02:38:14.429Z,988.56
2018-01-01T02:39:14.443Z,988.57
2018-01-01T02:40:14.456Z,988.57
2018-01-01T02:41:14.472Z,988.54
2018-01-01T02:42:14.487Z,988.56
2018-01-01T02:43:14.502Z,988.59
2018-01-01T02:44:14.517Z,988.62
2018-01-01T02:45:14.531Z,988.64
2018-01-01T02:46:14.546Z,988.63
2018-01-01T02:47:14.561Z,988.64
2018-01-01T02:48:14.579Z,988.63
2018-01-01T02:49:14.590Z,988.61
2018-01-01T02:50:14.610Z,988.58
2018-01-01T02:51:14.621Z,988.58
2018-01-01T02:52:14.635Z,988.63
2018-01-01T02:53:14.697Z,988.65
2018-01-01T02:54:14.664Z,988.64
2018-01-01T02:55:14.678Z,988.74
2018-01-01T02:56:14.694Z,988.7
2018-01-01T02:57:14.714Z,988.7
2018-01-01T02:58:14.728Z,988.66
2018-01-01T02:59:14.738Z,988.67
2018-01-01T03:00:14.753Z,988.61
2018-01-01T03:01:14.770Z,988.68
2018-01-01T03:02:14.782Z,988.66
2018-01-01T03:03:14.801Z,988.65
2018-01-01T03:04:14.813Z,988.65
2018-01-01T03:05:14.827Z,988.69
2018-01-01T03:06:14.842Z,988.67
2018-01-01T03:07:14.857Z,988.7
2018-01-01T03:08:14.872Z,988.7
2018-01-01T03:09:14.894Z,988.71
2018-01-01T03:10:14.902Z,988.69
2018-01-01T03:11:14.918Z,988.74
2018-01-01T03:12:14.932Z,988.74
2018-01-01T03:13:14.947Z,988.75
2018-01-01T03:14:14.961Z,988.73
2018-01-01T03:15:14.977Z,988.75
2018-01-01T03:16:14.993Z,988.78
2018-01-01T03:17:15.009Z,988.79
2018-01-01T03:18:15.021Z,988.79
2018-01-01T03:19:15.037Z,988.82
2018-01-01T03:20:15.087Z,988.81
2018-01-01T03:21:15.066Z,988.85
2018-01-01T03:22:15.081Z,988.87
2018-01-01T03:23:15.096Z,988.85
2018-01-01T03:24:15.112Z,988.9
2018-01-01T03:25:15.125Z,988.91
2018-01-01T03:26:15.141Z,988.95
2018-01-01T03:27:15.155Z,988.98
2018-01-01T03:28:15.171Z,989.01
2018-01-01T03:29:15.185Z,989.06
2018-01-01T03:30:15.199Z,989.05
2018-01-01T03:31:15.215Z,989.1
2018-01-01T03:32:15.230Z,989.17
2018-01-01T03:33:15.244Z,989.18
2018-01-01T03:34:15.260Z,989.13
2018-01-01T03:35:15.274Z,989.12
2018-01-01T03:36:15.289Z,989.04
2018-01-01T03:37:15.304Z,989.02
2018-01-01T03:38:15.321Z,989.07
2018-01-01T03:39:15.333Z,989.15
2018-01-01T03:40:15.349Z,989.15
2018-01-01T03:41:15.364Z,989.13
2018-01-01T03:42:15.378Z,989.17
2018-01-01T03:43:15.393Z,989.23
2018-01-01T03:44:15.408Z,989.19
2018-01-01T03:45:15.422Z,989.1
2018-01-01T03:46:15.439Z,989.1
2018-01-01T03:47:15.454Z,989.08
2018-01-01T03:48:15.468Z,989.06
2018-01-01T03:49:15.485Z,988.98
2018-01-01T03:50:15.501Z,988.89
2018-01-01T03:51:15.513Z,988.91
2018-01-01T03:52:15.528Z,988.95
2018-01-01T03:53:15.542Z,988.97
2018-01-01T03:54:15.558Z,988.95
2018-01-01T03:55:15.572Z,988.92
2018-01-01T03:56:15.588Z,988.92
2018-01-01T03:57:15.602Z,988.9
2018-01-01T03:58:15.619Z,988.92
2018-01-01T03:59:15.632Z,988.94
2018-01-01T04:00:15.648Z,988.87
2018-01-01T04:01:15.661Z,988.78
2018-01-01T04:02:15.684Z,988.85
2018-01-01T04:03:15.691Z,988.84
2018-01-01T04:04:15.706Z,988.84
2018-01-01T04:05:15.723Z,988.84
2018-01-01T04:06:15.738Z,988.9
2018-01-01T04:07:15.752Z,988.89
2018-01-01T04:08:15.764Z,988.85
2018-01-01T04:09:15.780Z,988.93
2018-01-01T04:10:15.797Z,989.01
2018-01-01T04:11:15.812Z,989
2018-01-01T04:12:15.827Z,988.95
2018-01-01T04:13:15.844Z,989.08
2018-01-01T04:14:15.856Z,989.14
2018-01-01T04:15:15.869Z,989.18
2018-01-01T04:16:15.887Z,989.1
2018-01-01T04:17:15.902Z,989.17
2018-01-01T04:18:15.915Z,989.15
2018-01-01T04:19:15.930Z,989.19
2018-01-01T04:20:15.945Z,989.14
2018-01-01T04:21:15.962Z,989.15
2018-01-01T04:22:15.976Z,989.1
2018-01-01T04:23:15.990Z,989.06
2018-01-01T04:24:16.006Z,989.15
2018-01-01T04:25:16.021Z,989.12
2018-01-01T04:26:16.035Z,989.13
2018-01-01T04:27:16.054Z,989.15
2018-01-01T04:28:16.068Z,989.13
2018-01-01T04:29:16.080Z,989.2
2018-01-01T04:30:16.095Z,989.2
2018-01-01T04:31:16.111Z,989.13
2018-01-01T04:32:16.126Z,989.17
2018-01-01T04:33:16.141Z,989.15
2018-01-01T04:34:16.156Z,989.15
2018-01-01T04:35:16.171Z,989.13
2018-01-01T04:36:16.186Z,989.18
2018-01-01T04:37:16.199Z,989.12
2018-01-01T04:38:16.215Z,989.17
2018-01-01T04:39:16.229Z,989.16
2018-01-01T04:40:16.250Z,989.12
2018-01-01T04:41:16.261Z,989.13
2018-01-01T04:42:16.275Z,989.14
2018-01-01T04:43:16.290Z,989.08
2018-01-01T04:44:16.305Z,989.12
2018-01-01T04:45:16.329Z,989.07
2018-01-01T04:46:16.386Z,989.09
2018-01-01T04:47:16.351Z,989.1
2018-01-01T04:48:16.365Z,989.05
2018-01-01T04:49:16.381Z,989.07
2018-01-01T04:50:16.396Z,989.05
2018-01-01T04:51:16.413Z,989.13
2018-01-01T04:52:16.425Z,989.24
2018-01-01T04:53:16.441Z,989.5
2018-01-01T04:54:16.456Z,989.43
2018-01-01T04:55:16.470Z,989.47
2018-01-01T04:56:16.485Z,989.49
2018-01-01T04:57:16.500Z,989.53
2018-01-01T04:58:16.517Z,989.62
2018-01-01T04:59:16.530Z,989.73
2018-01-01T05:00:16.546Z,989.61
2018-01-01T05:01:16.563Z,989.56
2018-01-01T05:02:16.574Z,989.59
2018-01-01T05:03:16.617Z,989.67
2018-01-01T05:04:16.604Z,989.7
2018-01-01T05:05:16.620Z,989.73
2018-01-01T05:06:16.684Z,989.79
2018-01-01T05:07:16.649Z,989.83
2018-01-01T05:08:16.663Z,989.74
2018-01-01T05:09:16.679Z,989.82
2018-01-01T05:10:16.694Z,989.85
2018-01-01T05:11:16.710Z,989.88
2018-01-01T05:12:16.729Z,989.8
2018-01-01T05:13:16.739Z,989.83
2018-01-01T05:14:16.753Z,989.8
2018-01-01T05:15:16.768Z,989.78
2018-01-01T05:16:16.784Z,989.83
2018-01-01T05:17:16.799Z,989.89
2018-01-01T05:18:16.813Z,989.85
2018-01-01T05:19:16.828Z,989.86
2018-01-01T05:20:16.843Z,989.83
2018-01-01T05:21:16.857Z,989.88
2018-01-01T05:22:16.872Z,989.91
2018-01-01T05:23:16.890Z,989.91
2018-01-01T05:24:16.902Z,989.92
2018-01-01T05:25:16.918Z,989.83
2018-01-01T05:26:16.930Z,989.84
2018-01-01T05:27:16.952Z,989.87
2018-01-01T05:28:16.961Z,989.85
2018-01-01T05:29:16.977Z,989.87
2018-01-01T05:30:16.992Z,989.88
2018-01-01T05:31:17.012Z,989.87
2018-01-01T05:32:17.021Z,989.83
2018-01-01T05:33:17.038Z,989.82
2018-01-01T05:34:17.050Z,989.78
2018-01-01T05:35:17.067Z,989.73
2018-01-01T05:36:17.079Z,989.72
2018-01-01T05:37:17.100Z,989.7
2018-01-01T05:38:17.110Z,989.77
2018-01-01T05:39:17.128Z,989.76
2018-01-01T05:40:17.139Z,989.82
2018-01-01T05:41:17.156Z,989.82
2018-01-01T05:42:17.169Z,989.79
2018-01-01T05:43:17.183Z,989.77
2018-01-01T05:44:17.198Z,989.8
2018-01-01T05:45:17.215Z,989.81
2018-01-01T05:46:17.228Z,989.82
2018-01-01T05:47:17.242Z,989.84
2018-01-01T05:48:17.257Z,989.9
2018-01-01T05:49:17.272Z,989.92
2018-01-01T05:50:17.287Z,989.9
2018-01-01T05:51:17.304Z,989.98
2018-01-01T05:52:17.317Z,989.97
2018-01-01T05:53:17.332Z,989.97
2018-01-01T05:54:17.346Z,989.94
2018-01-01T05:55:17.362Z,989.95
2018-01-01T05:56:17.377Z,989.95
2018-01-01T05:57:17.393Z,989.93
2018-01-01T05:58:17.404Z,989.89
2018-01-01T05:59:17.419Z,989.88
2018-01-01T06:00:17.434Z,989.85
2018-01-01T06:01:17.449Z,989.87
2018-01-01T06:02:17.463Z,989.83
2018-01-01T06:03:17.490Z,989.82
2018-01-01T06:04:17.493Z,989.85
2018-01-01T06:05:17.507Z,989.92
2018-01-01T06:06:17.523Z,989.97
2018-01-01T06:07:17.537Z,989.98
2018-01-01T06:08:17.552Z,989.98
2018-01-01T06:09:17.566Z,990
2018-01-01T06:10:17.581Z,990.02
2018-01-01T06:11:17.595Z,990.04
2018-01-01T06:12:17.610Z,990.07
2018-01-01T06:13:17.640Z,990.07
2018-01-01T06:14:17.639Z,990.07
2018-01-01T06:15:17.654Z,990.11
2018-01-01T06:16:17.668Z,990.05
2018-01-01T06:17:17.684Z,990.05
2018-01-01T06:18:17.698Z,990.04
2018-01-01T06:19:17.713Z,990.08
2018-01-01T06:20:17.727Z,990.04
2018-01-01T06:21:17.745Z,990.1
2018-01-01T06:22:17.758Z,990.05
2018-01-01T06:23:17.773Z,990.14
2018-01-01T06:24:17.787Z,990.13
2018-01-01T06:25:17.801Z,990.14
2018-01-01T06:26:17.898Z,990.19
2018-01-01T06:27:17.831Z,990.17
2018-01-01T06:28:17.845Z,990.2
2018-01-01T06:29:17.859Z,990.21
2018-01-01T06:30:17.965Z,990.13
2018-01-01T06:31:17.893Z,990.14
2018-01-01T06:32:17.903Z,990.13
2018-01-01T06:33:17.917Z,990.17
2018-01-01T06:34:17.931Z,990.15
2018-01-01T06:35:17.947Z,990.2
2018-01-01T06:36:17.963Z,990.19
2018-01-01T06:37:17.977Z,990.23
2018-01-01T06:38:17.989Z,990.24
2018-01-01T06:39:18.005Z,990.2
2018-01-01T06:40:18.020Z,990.26
2018-01-01T06:41:18.033Z,990.24
2018-01-01T06:42:18.048Z,990.3
2018-01-01T06:43:18.062Z,990.3
2018-01-01T06:44:18.077Z,990.32
2018-01-01T06:45:18.092Z,990.38
2018-01-01T06:46:18.104Z,990.39
2018-01-01T06:47:18.120Z,990.39
2018-01-01T06:48:18.136Z,990.44
2018-01-01T06:49:18.149Z,990.45
2018-01-01T06:50:18.163Z,990.49
2018-01-01T06:51:18.179Z,990.49
2018-01-01T06:52:18.192Z,990.47
2018-01-01T06:53:18.208Z,990.46
2018-01-01T06:54:18.221Z,990.5
2018-01-01T06:55:18.237Z,990.56
2018-01-01T06:56:18.249Z,990.5
2018-01-01T06:57:18.265Z,990.56
2018-01-01T06:58:18.323Z,990.53
2018-01-01T06:59:18.296Z,990.61
2018-01-01T07:00:18.308Z,990.51
2018-01-01T07:01:18.322Z,990.56
2018-01-01T07:02:18.336Z,990.59
2018-01-01T07:03:18.349Z,990.61
2018-01-01T07:04:18.364Z,990.61
2018-01-01T07:05:18.379Z,990.6
2018-01-01T07:06:18.394Z,990.53
2018-01-01T07:07:18.406Z,990.63
2018-01-01T07:08:18.422Z,990.58
2018-01-01T07:09:18.436Z,990.63
2018-01-01T07:10:18.450Z,990.63
2018-01-01T07:11:18.464Z,990.66
2018-01-01T07:12:18.479Z,990.66
2018-01-01T07:13:18.492Z,990.69
2018-01-01T07:14:18.506Z,990.68
2018-01-01T07:15:18.521Z,990.67
2018-01-01T07:16:18.536Z,990.69
2018-01-01T07:17:18.553Z,990.71
2018-01-01T07:18:18.563Z,990.77
2018-01-01T07:19:18.578Z,990.72
2018-01-01T07:20:18.592Z,990.78
2018-01-01T07:21:18.607Z,990.72
2018-01-01T07:22:18.621Z,990.74
2018-01-01T07:23:18.635Z,990.81
2018-01-01T07:24:18.650Z,990.79
2018-01-01T07:25:18.663Z,990.84
2018-01-01T07:26:18.680Z,991.06
2018-01-01T07:27:18.692Z,990.99
2018-01-01T07:28:18.706Z,990.91
2018-01-01T07:29:18.720Z,991.06
2018-01-01T07:30:18.734Z,991.18
2018-01-01T07:31:18.749Z,991.05
2018-01-01T07:32:18.763Z,991.11
2018-01-01T07:33:18.777Z,991.07
2018-01-01T07:34:18.791Z,991.2
2018-01-01T07:35:18.807Z,991.09
2018-01-01T07:36:18.818Z,991.06
2018-01-01T07:37:18.832Z,991.05
2018-01-01T07:38:18.897Z,991.36
2018-01-01T07:39:18.864Z,991.05
2018-01-01T07:40:18.878Z,991.08
2018-01-01T07:41:18.889Z,991.06
2018-01-01T07:42:18.904Z,991.08
2018-01-01T07:43:18.968Z,991
2018-01-01T07:44:18.931Z,991.07
2018-01-01T07:45:18.946Z,991.09
2018-01-01T07:46:18.961Z,991.16
2018-01-01T07:47:18.974Z,991.12
2018-01-01T07:48:18.991Z,991.11
2018-01-01T07:49:19.005Z,991.22
2018-01-01T07:50:19.022Z,991.17
2018-01-01T07:51:19.032Z,991.14
2018-01-01T07:52:19.047Z,991.12
2018-01-01T07:53:19.059Z,991.13
2018-01-01T07:54:19.073Z,991.14
2018-01-01T07:55:19.107Z,991.11
2018-01-01T07:56:19.101Z,991.23
2018-01-01T07:57:19.115Z,991.24
2018-01-01T07:58:19.129Z,991.21
2018-01-01T07:59:19.144Z,991.27
2018-01-01T08:00:19.158Z,991.29
2018-01-01T08:01:19.174Z,991.3
2018-01-01T08:02:19.186Z,991.2
2018-01-01T08:03:19.202Z,991.33
2018-01-01T08:04:19.216Z,991.32
2018-01-01T08:05:19.230Z,991.21
2018-01-01T08:06:19.241Z,991.35
2018-01-01T08:07:19.257Z,991.29
2018-01-01T08:08:19.271Z,991.31
2018-01-01T08:09:19.285Z,991.28
2018-01-01T08:10:19.297Z,991.23
2018-01-01T08:11:19.312Z,991.28
2018-01-01T08:12:19.327Z,991.21
2018-01-01T08:13:19.340Z,991.31
2018-01-01T08:14:19.356Z,991.3
2018-01-01T08:15:19.368Z,991.42
2018-01-01T08:16:19.382Z,991.32
2018-01-01T08:17:19.396Z,991.31
2018-01-01T08:18:19.411Z,991.3
2018-01-01T08:19:19.424Z,991.26
2018-01-01T08:20:19.442Z,991.19
2018-01-01T08:21:19.454Z,991.19
2018-01-01T08:22:19.468Z,991.18
2018-01-01T08:23:19.481Z,991.16
2018-01-01T08:24:19.498Z,991.18
2018-01-01T08:25:19.515Z,991.23
2018-01-01T08:26:19.523Z,991.26
2018-01-01T08:27:19.536Z,991.26
2018-01-01T08:28:19.553Z,991.33
2018-01-01T08:29:19.568Z,991.41
2018-01-01T08:30:19.579Z,991.33
2018-01-01T08:31:19.593Z,991.29
2018-01-01T08:32:19.608Z,991.3
2018-01-01T08:33:19.622Z,991.23
2018-01-01T08:34:19.636Z,991.29
2018-01-01T08:35:19.650Z,991.34
2018-01-01T08:36:19.665Z,991.33
2018-01-01T08:37:19.684Z,991.28
2018-01-01T08:38:19.716Z,991.36
2018-01-01T08:39:19.707Z,991.32
2018-01-01T08:40:19.720Z,991.32
2018-01-01T08:41:19.734Z,991.28
2018-01-01T08:42:19.749Z,991.36
2018-01-01T08:43:19.762Z,991.34
2018-01-01T08:44:19.777Z,991.27
2018-01-01T08:45:19.792Z,991.36
2018-01-01T08:46:19.805Z,991.38
2018-01-01T08:47:19.819Z,991.43
2018-01-01T08:48:19.834Z,991.49
2018-01-01T08:49:19.898Z,991.33
2018-01-01T08:50:19.868Z,991.48
2018-01-01T08:51:19.875Z,991.52
2018-01-01T08:52:19.893Z,991.56
2018-01-01T08:53:19.902Z,991.61
2018-01-01T08:54:19.970Z,991.61
2018-01-01T08:55:19.932Z,991.49
2018-01-01T08:56:19.947Z,991.6
2018-01-01T08:57:19.960Z,991.68
2018-01-01T08:58:19.975Z,991.7
2018-01-01T08:59:20.047Z,991.63
2018-01-01T09:00:20.003Z,991.68
2018-01-01T09:01:20.018Z,991.69
2018-01-01T09:02:20.032Z,991.73
2018-01-01T09:03:20.046Z,991.72
2018-01-01T09:04:20.109Z,991.8
2018-01-01T09:05:20.074Z,991.82
2018-01-01T09:06:20.089Z,991.8
2018-01-01T09:07:20.103Z,991.85
2018-01-01T09:08:20.115Z,991.87
2018-01-01T09:09:20.181Z,991.81
2018-01-01T09:10:20.145Z,991.89
2018-01-01T09:11:20.157Z,991.89
2018-01-01T09:12:20.175Z,991.9
2018-01-01T09:13:20.187Z,991.87
2018-01-01T09:14:20.202Z,991.91
2018-01-01T09:15:20.224Z,991.89
2018-01-01T09:16:20.230Z,991.93
2018-01-01T09:17:20.244Z,991.97
2018-01-01T09:18:20.259Z,991.82
2018-01-01T09:19:20.272Z,991.92
2018-01-01T09:20:20.287Z,991.92
2018-01-01T09:21:20.301Z,991.92
2018-01-01T09:22:20.315Z,991.87
2018-01-01T09:23:20.338Z,991.98
2018-01-01T09:24:20.344Z,991.99
2018-01-01T09:25:20.359Z,992
2018-01-01T09:26:20.372Z,992.01
2018-01-01T09:27:20.387Z,991.95
2018-01-01T09:28:20.417Z,991.96
2018-01-01T09:29:20.418Z,991.98
2018-01-01T09:30:20.430Z,992.14
2018-01-01T09:31:20.445Z,992.05
2018-01-01T09:32:20.460Z,992.05
2018-01-01T09:33:20.472Z,991.95
2018-01-01T09:34:20.487Z,992.04
2018-01-01T09:35:20.501Z,992.09
2018-01-01T09:36:20.523Z,992.1
2018-01-01T09:37:20.530Z,992.01
2018-01-01T09:38:20.547Z,992.25
2018-01-01T09:39:20.559Z,992.12
2018-01-01T09:40:20.598Z,992.2
2018-01-01T09:41:20.588Z,992.23
2018-01-01T09:42:20.603Z,992.27
2018-01-01T09:43:20.616Z,992.35
2018-01-01T09:44:20.630Z,992.26
2018-01-01T09:45:20.643Z,992.25
2018-01-01T09:46:20.659Z,992.31
2018-01-01T09:47:20.673Z,992.29
2018-01-01T09:48:20.695Z,992.31
2018-01-01T09:49:20.701Z,992.26
2018-01-01T09:50:20.716Z,992.34
2018-01-01T09:51:20.731Z,992.26
2018-01-01T09:52:20.746Z,992.28
2018-01-01T09:53:20.759Z,992.27
2018-01-01T09:54:20.774Z,992.21
2018-01-01T09:55:20.787Z,992.18
2018-01-01T09:56:20.802Z,992.25
2018-01-01T09:57:20.819Z,992.21
2018-01-01T09:58:20.831Z,992.27
2018-01-01T09:59:20.845Z,992.26
2018-01-01T10:00:20.860Z,992.3
2018-01-01T10:01:20.873Z,992.28
2018-01-01T10:02:20.887Z,992.35
2018-01-01T10:03:20.902Z,992.34
2018-01-01T10:04:20.919Z,992.31
2018-01-01T10:05:20.940Z,992.33
2018-01-01T10:06:20.944Z,992.34
2018-01-01T10:07:20.959Z,992.31
2018-01-01T10:08:20.972Z,992.35
2018-01-01T10:09:20.988Z,992.28
2018-01-01T10:10:21.053Z,992.29
2018-01-01T10:11:21.018Z,992.29
2018-01-01T10:12:21.032Z,992.31
2018-01-01T10:13:21.044Z,992.34
2018-01-01T10:14:21.061Z,992.34
2018-01-01T10:15:21.074Z,992.38
2018-01-01T10:16:21.088Z,992.33
2018-01-01T10:17:21.106Z,992.31
2018-01-01T10:18:21.117Z,992.28
2018-01-01T10:19:21.132Z,992.25
2018-01-01T10:20:21.146Z,992.28
2018-01-01T10:21:21.160Z,992.23
2018-01-01T10:22:21.174Z,992.3
2018-01-01T10:23:21.188Z,992.24
2018-01-01T10:24:21.203Z,992.15
2018-01-01T10:25:21.217Z,992.03
2018-01-01T10:26:21.231Z,992.15
2018-01-01T10:27:21.248Z,992.14
2018-01-01T10:28:21.260Z,992.21
2018-01-01T10:29:21.274Z,992.19
2018-01-01T10:30:21.291Z,992.29
2018-01-01T10:31:21.304Z,992.26
2018-01-01T10:32:21.318Z,992.21
2018-01-01T10:33:21.333Z,992.27
2018-01-01T10:34:21.349Z,992.23
2018-01-01T10:35:21.361Z,992.21
2018-01-01T10:36:21.375Z,992.3
2018-01-01T10:37:21.391Z,992.21
2018-01-01T10:38:21.404Z,992.23
2018-01-01T10:39:21.417Z,992.24
2018-01-01T10:40:21.438Z,992.24
2018-01-01T10:41:21.448Z,992.22
2018-01-01T10:42:21.464Z,992.24
2018-01-01T10:43:21.474Z,992.26
2018-01-01T10:44:21.490Z,992.23
2018-01-01T10:45:21.506Z,992.19
2018-01-01T10:46:21.518Z,992.21
2018-01-01T10:47:21.545Z,992.24
2018-01-01T10:48:21.548Z,992.17
2018-01-01T10:49:21.563Z,992.22
2018-01-01T10:50:21.578Z,992.17
2018-01-01T10:51:21.591Z,992.25
2018-01-01T10:52:21.605Z,992.23
2018-01-01T10:53:21.621Z,992.2
2018-01-01T10:54:21.633Z,992.2
2018-01-01T10:55:21.649Z,992.25
2018-01-01T10:56:21.713Z,992.21
2018-01-01T10:57:21.677Z,992.15
2018-01-01T10:58:21.691Z,992.16
2018-01-01T10:59:21.707Z,992.18
2018-01-01T11:00:21.720Z,992.26
2018-01-01T11:01:21.735Z,992.23
2018-01-01T11:02:21.749Z,992.25
2018-01-01T11:03:21.763Z,992.37
2018-01-01T11:04:21.779Z,992.38
2018-01-01T11:05:21.808Z,992.38
2018-01-01T11:06:21.808Z,992.43
2018-01-01T11:07:21.824Z,992.37
2018-01-01T11:08:21.837Z,992.33
2018-01-01T11:09:21.851Z,992.3
2018-01-01T11:10:21.866Z,992.29
2018-01-01T11:11:21.881Z,992.3
2018-01-01T11:12:21.895Z,992.23
2018-01-01T11:13:21.912Z,992.41
2018-01-01T11:14:21.925Z,992.35
2018-01-01T11:15:21.938Z,992.34
2018-01-01T11:16:21.953Z,992.33
2018-01-01T11:17:21.968Z,992.39
2018-01-01T11:18:21.982Z,992.39
2018-01-01T11:19:21.997Z,992.35
2018-01-01T11:20:22.011Z,992.37
2018-01-01T11:21:22.026Z,992.47
2018-01-01T11:22:22.061Z,992.49
2018-01-01T11:23:22.054Z,992.49
2018-01-01T11:24:22.070Z,992.49
2018-01-01T11:25:22.085Z,992.45
2018-01-01T11:26:22.099Z,992.27
2018-01-01T11:27:22.118Z,992.34
2018-01-01T11:28:22.131Z,992.3
2018-01-01T11:29:22.144Z,992.44
2018-01-01T11:30:22.165Z,992.36
2018-01-01T11:31:22.173Z,992.35
2018-01-01T11:32:22.188Z,992.36
2018-01-01T11:33:22.202Z,992.44
2018-01-01T11:34:22.221Z,992.43
2018-01-01T11:35:22.233Z,992.39
2018-01-01T11:36:22.246Z,992.35
2018-01-01T11:37:22.260Z,992.36
2018-01-01T11:38:22.275Z,992.29
2018-01-01T11:39:22.290Z,992.3
2018-01-01T11:40:22.306Z,992.28
2018-01-01T11:41:22.322Z,992.27
2018-01-01T11:42:22.334Z,992.23
2018-01-01T11:43:22.350Z,992.29
2018-01-01T11:44:22.365Z,992.3
2018-01-01T11:45:22.382Z,992.36
2018-01-01T11:46:22.394Z,992.39
2018-01-01T11:47:22.409Z,992.41
2018-01-01T11:48:22.423Z,992.38
2018-01-01T11:49:22.439Z,992.32
2018-01-01T11:50:22.454Z,992.4
2018-01-01T11:51:22.469Z,992.37
2018-01-01T11:52:22.483Z,992.37
2018-01-01T11:53:22.497Z,992.35
2018-01-01T11:54:22.515Z,992.39
2018-01-01T11:55:22.528Z,992.41
2018-01-01T11:56:22.542Z,992.36
2018-01-01T11:57:22.557Z,992.29
2018-01-01T11:58:22.572Z,992.24
2018-01-01T11:59:22.587Z,992.21
2018-01-01T12:00:22.603Z,992.17
2018-01-01T12:01:22.617Z,992.15
2018-01-01T12:02:22.633Z,992.12
2018-01-01T12:03:22.646Z,992.09
2018-01-01T12:04:22.660Z,992.11
2018-01-01T12:05:22.677Z,992.11
2018-01-01T12:06:22.692Z,992.08
2018-01-01T12:07:22.706Z,992.09
2018-01-01T12:08:22.721Z,992.1
2018-01-01T12:09:22.737Z,992.14
2018-01-01T12:10:22.750Z,992.07
2018-01-01T12:11:22.767Z,992.05
2018-01-01T12:12:22.801Z,992.04
2018-01-01T12:13:22.795Z,992.08
2018-01-01T12:14:22.809Z,992.03
2018-01-01T12:15:22.824Z,992.08
2018-01-01T12:16:22.839Z,992.04
2018-01-01T12:17:22.858Z,992.1
2018-01-01T12:18:22.878Z,992.04
2018-01-01T12:19:22.884Z,992.02
2018-01-01T12:20:22.899Z,992.03
2018-01-01T12:21:22.913Z,992.01
2018-01-01T12:22:22.928Z,992.03
2018-01-01T12:23:22.943Z,991.97
2018-01-01T12:24:22.960Z,991.89
2018-01-01T12:25:22.972Z,991.9
2018-01-01T12:26:22.987Z,991.96
2018-01-01T12:27:23.052Z,991.91
2018-01-01T12:28:23.020Z,991.98
2018-01-01T12:29:23.031Z,991.97
2018-01-01T12:30:23.046Z,991.95
2018-01-01T12:31:23.061Z,991.93